Time;durP1;ratioP1;P1;durP2;ratioP2;P2;SDS_P1;SDS_P2;PMS_P1;PMS_P2;Temp;Humidity;BMP_temperature;BMP_pressure;BME280_temperature;BME280_humidity;BME280_pressure;Samples;Min_cycle;Max_cycle;Signal;HPM_P1;HPM_P2
2022/06/22 00:02:35;;;;;;;6.03;5.30;;;23.60;91.10;;;;;;10477548;28;20236;-81
2022/06/22 00:07:39;;;;;;;5.93;5.53;;;23.50;91.20;;;;;;10500267;28;20212;-80
2022/06/22 00:12:47;;;;;;;11.63;5.10;;;23.50;91.10;;;;;;10501810;28;20224;-81
2022/06/22 00:17:50;;;;;;;6.23;5.83;;;23.40;91.20;;;;;;10476741;28;20217;-83
2022/06/22 00:22:57;;;;;;;6.47;5.97;;;23.40;91.30;;;;;;10501039;28;20231;-83
2022/06/22 00:28:29;;;;;;;6.73;6.13;;;23.40;91.60;;;;;;10485695;28;20228;-80
2022/06/22 00:33:31;;;;;;;6.13;5.73;;;23.30;91.80;;;;;;10474780;28;20193;-81
2022/06/22 00:38:34;;;;;;;6.10;5.60;;;23.30;92.00;;;;;;10498810;28;20704;-82
2022/06/22 00:43:38;;;;;;;7.53;6.60;;;23.20;92.20;;;;;;10487603;28;20643;-82
2022/06/22 00:48:40;;;;;;;7.50;6.97;;;23.20;92.20;;;;;;10477856;28;20264;-82
2022/06/22 00:53:44;;;;;;;7.03;6.43;;;23.20;92.20;;;;;;10480902;28;20287;-82
2022/06/22 00:58:57;;;;;;;7.13;6.53;;;23.10;92.60;;;;;;10496717;28;20280;-82
2022/06/22 01:04:03;;;;;;;7.47;6.87;;;23.00;93.00;;;;;;10489933;28;20197;-81
2022/06/22 01:09:14;;;;;;;7.10;6.60;;;23.00;93.10;;;;;;10476482;28;20262;-80
2022/06/22 01:14:21;;;;;;;7.90;7.20;;;23.00;93.40;;;;;;10487792;28;20204;-82
2022/06/22 01:19:37;;;;;;;7.10;6.60;;;23.10;94.30;;;;;;10471747;28;20216;-81
2022/06/22 01:24:50;;;;;;;7.43;6.93;;;23.10;93.60;;;;;;10500576;28;20200;-82
2022/06/22 01:29:55;;;;;;;7.67;7.07;;;23.20;94.00;;;;;;10498391;28;20224;-81
2022/06/22 01:35:00;;;;;;;7.80;7.20;;;23.20;93.80;;;;;;10478142;28;20258;-83
2022/06/22 01:40:11;;;;;;;7.60;6.90;;;23.20;93.80;;;;;;10499151;28;20708;-82
2022/06/22 01:45:23;;;;;;;7.53;6.97;;;23.20;93.80;;;;;;10484422;28;20240;-81
2022/06/22 01:50:31;;;;;;;7.30;6.70;;;23.20;93.70;;;;;;10486801;28;20596;-81
2022/06/22 01:55:40;;;;;;;7.53;6.93;;;23.10;94.10;;;;;;10511308;28;20211;-83
2022/06/22 02:00:46;;;;;;;8.27;7.67;;;23.00;94.10;;;;;;10496569;28;20189;-83
2022/06/22 02:05:54;;;;;;;8.37;7.67;;;23.00;94.40;;;;;;10506584;28;20288;-82
2022/06/22 02:11:01;;;;;;;8.10;7.50;;;23.00;94.40;;;;;;10507914;28;20213;-81
2022/06/22 02:16:13;;;;;;;8.17;7.53;;;22.90;94.60;;;;;;10491987;28;20224;-83
2022/06/22 02:21:21;;;;;;;7.90;7.40;;;22.90;94.70;;;;;;10511486;28;20250;-83
2022/06/22 02:26:29;;;;;;;8.40;7.80;;;23.00;94.80;;;;;;10507546;28;20680;-82
2022/06/22 02:31:33;;;;;;;8.00;7.40;;;23.00;95.00;;;;;;10514770;28;20274;-83
2022/06/22 02:36:41;;;;;;;7.87;7.37;;;23.00;95.20;;;;;;10505165;28;20287;-83
2022/06/22 02:47:21;;;;;;;9.13;8.43;;;23.10;96.10;;;;;;10483291;28;20216;-81
2022/06/22 02:52:30;;;;;;;7.97;7.40;;;23.10;96.50;;;;;;10500803;28;20216;-80
2022/06/22 02:57:44;;;;;;;10.37;8.70;;;23.10;97.00;;;;;;10483105;28;20243;-82
2022/06/22 03:02:48;;;;;;;10.10;9.20;;;22.90;97.50;;;;;;10496195;28;20200;-82
2022/06/22 03:07:53;;;;;;;10.00;9.30;;;22.80;98.40;;;;;;10502407;28;20303;-82
2022/06/22 03:12:56;;;;;;;10.07;9.27;;;22.80;98.60;;;;;;10493323;28;20688;-83
2022/06/22 03:18:00;;;;;;;9.73;8.83;;;22.80;98.90;;;;;;10466855;28;20221;-83
2022/06/22 03:23:15;;;;;;;11.77;10.47;;;22.80;99.00;;;;;;10500750;28;20188;-82
2022/06/22 03:28:22;;;;;;;9.77;8.90;;;22.80;98.80;;;;;;10484839;28;20751;-82
2022/06/22 03:33:31;;;;;;;10.07;9.20;;;22.80;98.80;;;;;;10501291;28;20575;-83
2022/06/22 03:38:39;;;;;;;10.27;9.47;;;22.80;98.70;;;;;;10480973;28;20278;-83
2022/06/22 03:43:45;;;;;;;10.83;10.03;;;22.70;98.90;;;;;;10479758;28;20295;-82
2022/06/22 03:48:53;;;;;;;10.17;9.37;;;22.70;99.00;;;;;;10499865;28;20227;-82
2022/06/22 03:54:01;;;;;;;10.10;9.47;;;22.70;98.50;;;;;;10499932;28;20199;-80
2022/06/22 03:59:05;;;;;;;9.73;9.10;;;22.60;99.00;;;;;;10480827;28;20216;-83
2022/06/22 04:04:09;;;;;;;9.40;8.80;;;22.60;99.30;;;;;;10479346;28;20201;-80
2022/06/22 04:09:14;;;;;;;10.50;9.80;;;22.70;99.40;;;;;;10498961;28;20734;-82
2022/06/22 04:14:21;;;;;;;9.67;8.90;;;22.70;99.30;;;;;;10481156;28;20207;-81
2022/06/22 04:19:30;;;;;;;10.47;9.57;;;22.80;99.60;;;;;;10484336;28;20258;-81
2022/06/22 04:24:35;;;;;;;9.57;8.90;;;22.80;99.30;;;;;;10485977;28;20231;-83
2022/06/22 04:29:43;;;;;;;9.37;8.57;;;22.90;99.20;;;;;;10475687;28;20236;-83
2022/06/22 04:34:51;;;;;;;10.00;9.27;;;22.90;99.00;;;;;;10484704;28;20572;-83
2022/06/22 04:40:02;;;;;;;9.93;9.23;;;23.00;99.20;;;;;;10495274;28;20213;-80
2022/06/22 04:45:06;;;;;;;9.97;9.30;;;23.00;98.90;;;;;;10444190;28;20665;-82
2022/06/22 04:50:13;;;;;;;10.10;9.30;;;23.00;98.70;;;;;;10473556;28;20224;-80
2022/06/22 04:55:18;;;;;;;9.50;8.67;;;23.00;98.90;;;;;;10477968;28;20232;-82
2022/06/22 05:00:23;;;;;;;9.43;8.73;;;23.10;99.10;;;;;;10489482;28;20304;-82
2022/06/22 05:05:29;;;;;;;10.50;9.70;;;23.10;99.40;;;;;;10483115;28;20204;-79
2022/06/22 05:10:42;;;;;;;10.00;9.10;;;23.20;99.40;;;;;;10475042;28;20696;-80
2022/06/22 05:15:46;;;;;;;9.43;8.33;;;23.30;98.90;;;;;;10487129;28;20212;-80
2022/06/22 05:20:54;;;;;;;10.60;9.60;;;23.40;98.30;;;;;;10489850;28;20203;-82
2022/06/22 05:26:01;;;;;;;10.57;9.37;;;23.50;98.10;;;;;;10500174;28;20232;-79
2022/06/22 05:31:07;;;;;;;9.10;8.40;;;23.70;98.20;;;;;;10502228;28;20246;-83
2022/06/22 05:36:13;;;;;;;8.63;7.97;;;23.80;97.70;;;;;;10484785;28;20224;-82
2022/06/22 05:41:20;;;;;;;8.70;8.00;;;24.00;97.40;;;;;;10497538;28;20216;-82
2022/06/22 05:46:23;;;;;;;9.23;8.43;;;24.20;96.50;;;;;;10480776;28;20288;-82
2022/06/22 05:51:35;;;;;;;10.43;9.53;;;24.40;96.10;;;;;;10501482;28;20267;-82
2022/06/22 05:56:44;;;;;;;9.73;8.93;;;24.50;95.20;;;;;;10492440;28;20217;-82
2022/06/22 06:02:00;;;;;;;9.67;8.87;;;24.50;95.70;;;;;;10498293;28;20570;-82
2022/06/22 06:07:11;;;;;;;8.50;7.83;;;24.50;96.10;;;;;;10491519;28;20220;-82
2022/06/22 06:12:18;;;;;;;8.57;7.87;;;24.60;95.20;;;;;;10509884;28;20730;-83
2022/06/22 06:17:27;;;;;;;9.47;8.77;;;24.60;95.00;;;;;;10519554;28;20216;-82
2022/06/22 06:22:34;;;;;;;8.60;7.90;;;24.50;95.00;;;;;;10487082;28;20256;-81
2022/06/22 06:27:39;;;;;;;8.87;8.17;;;24.40;95.20;;;;;;10499471;28;20235;-83
2022/06/22 06:32:48;;;;;;;9.10;8.30;;;24.40;95.60;;;;;;10469816;28;20217;-82
2022/06/22 06:37:58;;;;;;;9.10;8.40;;;24.50;95.10;;;;;;10463866;28;20212;-79
2022/06/22 06:43:21;;;;;;;9.43;8.53;;;24.40;95.00;;;;;;10497594;28;20224;-80
2022/06/22 06:48:27;;;;;;;10.13;8.67;;;24.40;95.60;;;;;;10495508;28;20224;-79
2022/06/22 06:53:39;;;;;;;11.10;9.23;;;24.50;96.50;;;;;;10503823;28;20220;-80
2022/06/22 06:58:46;;;;;;;10.60;9.80;;;24.50;96.20;;;;;;10470918;28;20224;-81
2022/06/22 07:03:51;;;;;;;10.57;9.67;;;24.40;96.30;;;;;;10487046;28;20610;-80
2022/06/22 07:09:00;;;;;;;9.93;9.13;;;24.40;97.40;;;;;;10493790;28;20220;-82
2022/06/22 07:14:09;;;;;;;9.53;8.83;;;24.40;97.80;;;;;;10462094;28;20231;-82
2022/06/22 07:19:17;;;;;;;8.60;7.87;;;24.30;97.50;;;;;;10468021;28;20295;-83
2022/06/22 07:24:27;;;;;;;10.90;9.90;;;24.20;97.50;;;;;;10469787;28;20193;-82
2022/06/22 07:29:36;;;;;;;9.33;8.53;;;24.10;98.40;;;;;;10505176;28;20711;-83
2022/06/22 07:34:42;;;;;;;10.17;9.37;;;24.10;99.10;;;;;;10495760;28;20228;-81
2022/06/22 07:39:50;;;;;;;10.13;9.33;;;24.00;98.90;;;;;;10500418;28;20256;-83
2022/06/22 07:44:53;;;;;;;9.60;8.73;;;23.90;98.10;;;;;;10508019;28;20190;-82
2022/06/22 07:50:00;;;;;;;12.47;9.10;;;23.90;98.40;;;;;;10485432;28;20224;-83
2022/06/22 07:55:31;;;;;;;9.90;9.00;;;23.80;98.60;;;;;;10475581;28;20213;-84
2022/06/22 08:00:34;;;;;;;9.97;9.20;;;23.80;97.50;;;;;;10485748;28;20196;-81
2022/06/22 08:05:42;;;;;;;9.83;9.13;;;23.80;98.90;;;;;;10493628;28;20225;-81
2022/06/22 08:11:22;;;;;;;;;;;;;;;;;;;;;
2022/06/22 08:16:29;;;;;;;10.43;9.50;;;24.00;97.90;;;;;;10445243;28;20214;-79
2022/06/22 08:21:35;;;;;;;9.63;8.60;;;24.20;98.50;;;;;;10444370;28;20204;-82
2022/06/22 08:26:47;;;;;;;10.80;8.37;;;24.40;98.00;;;;;;10475566;28;20232;-80
2022/06/22 08:37:30;;;;;;;9.37;8.70;;;24.60;97.30;;;;;;10452732;28;20640;-82
2022/06/22 08:42:46;;;;;;;8.43;7.63;;;24.60;95.90;;;;;;10468087;28;20257;-82
2022/06/22 08:48:19;;;;;;;9.97;9.03;;;24.50;96.40;;;;;;10458741;28;20634;-80
2022/06/22 08:54:05;;;;;;;9.50;8.77;;;24.50;96.30;;;;;;10455158;28;20279;-82
2022/06/22 08:59:42;;;;;;;9.73;8.37;;;24.40;96.70;;;;;;10478669;28;20299;-80
2022/06/22 09:05:13;;;;;;;8.30;7.60;;;24.40;96.60;;;;;;10464527;28;20700;-81
2022/06/22 09:10:32;;;;;;;11.00;10.13;;;24.50;96.80;;;;;;10482686;28;20281;-82
2022/06/22 09:15:46;;;;;;;10.83;9.73;;;24.60;96.40;;;;;;10462853;28;20284;-79
2022/06/22 09:20:58;;;;;;;9.90;9.07;;;24.70;96.10;;;;;;10467676;28;20260;-81
2022/06/22 09:26:14;;;;;;;9.67;8.80;;;24.80;95.90;;;;;;10477354;28;20235;-81
2022/06/22 09:31:55;;;;;;;11.13;10.10;;;24.80;96.00;;;;;;10466573;28;20231;-81
2022/06/22 09:37:25;;;;;;;10.23;9.33;;;24.90;95.80;;;;;;10458773;28;20327;-81
2022/06/22 09:43:05;;;;;;;9.87;9.13;;;25.00;96.10;;;;;;10477655;28;20290;-82
2022/06/22 09:48:40;;;;;;;9.80;9.10;;;25.00;96.90;;;;;;10451469;28;20231;-82
2022/06/22 09:59:53;;;;;;;10.23;9.03;;;25.00;94.90;;;;;;10440928;28;20232;-82
2022/06/22 10:05:32;;;;;;;8.63;8.00;;;25.00;95.40;;;;;;10501996;28;20200;-82
2022/06/22 10:10:47;;;;;;;7.87;7.27;;;25.00;95.00;;;;;;10504168;28;20234;-82
2022/06/22 10:16:10;;;;;;;9.83;9.00;;;25.00;94.40;;;;;;10492480;28;20207;-80
2022/06/22 10:21:22;;;;;;;8.47;7.87;;;25.00;94.50;;;;;;10484094;28;20194;-80
2022/06/22 10:26:49;;;;;;;9.93;9.07;;;25.00;94.50;;;;;;10467869;28;20234;-81
2022/06/22 10:32:30;;;;;;;10.00;9.10;;;25.00;94.80;;;;;;10474921;28;20217;-80
2022/06/22 10:38:00;;;;;;;9.63;8.93;;;24.90;94.60;;;;;;10478400;28;20232;-81
2022/06/22 10:49:02;;;;;;;12.10;11.00;;;24.80;97.40;;;;;;10490086;28;20223;-80
2022/06/22 10:54:26;;;;;;;13.27;12.07;;;24.80;98.40;;;;;;10473796;28;20881;-81
2022/06/22 11:00:04;;;;;;;14.20;12.90;;;24.30;99.30;;;;;;10455547;28;20699;-80
2022/06/22 11:05:27;;;;;;;11.33;10.63;;;23.70;99.90;;;;;;10472359;28;20196;-80
2022/06/22 11:10:44;;;;;;;12.40;11.23;;;23.20;99.90;;;;;;10472196;28;20319;-80
2022/06/22 11:16:34;;;;;;;11.90;10.80;;;22.80;99.90;;;;;;10475431;28;20220;-79
2022/06/22 11:21:53;;;;;;;11.93;11.13;;;22.60;99.90;;;;;;10338791;28;20257;-80
2022/06/22 11:32:35;;;;;;;12.20;11.10;;;22.60;99.90;;;;;;10477728;28;20677;-80
2022/06/22 11:37:51;;;;;;;10.80;10.00;;;22.70;99.90;;;;;;10466782;28;20228;-80
2022/06/22 11:43:08;;;;;;;10.20;9.50;;;22.80;99.90;;;;;;10451828;28;20247;-80
2022/06/22 11:48:38;;;;;;;11.00;10.20;;;22.90;99.90;;;;;;10473248;28;20428;-80
2022/06/22 11:54:01;;;;;;;11.33;10.37;;;23.10;99.90;;;;;;10443206;28;20216;-80
2022/06/22 11:59:35;;;;;;;10.07;9.27;;;23.20;99.90;;;;;;10468371;28;20223;-81
2022/06/22 12:05:11;;;;;;;12.33;11.20;;;23.50;99.90;;;;;;10469106;28;20201;-81
2022/06/22 12:10:47;;;;;;;12.00;10.83;;;23.60;99.90;;;;;;10482279;28;20303;-81
2022/06/22 12:16:01;;;;;;;11.83;10.80;;;23.70;99.90;;;;;;10497421;28;20197;-82
2022/06/22 12:21:19;;;;;;;11.20;10.20;;;23.80;99.90;;;;;;10475471;28;20197;-81
2022/06/22 12:26:39;;;;;;;11.87;10.77;;;24.00;99.90;;;;;;10523544;22;22316;-81
2022/06/22 12:31:47;;;;;;;10.77;9.87;;;24.20;99.90;;;;;;10464138;28;20658;-82
2022/06/22 12:36:52;;;;;;;8.07;7.40;;;24.30;99.90;;;;;;10471213;28;20279;-81
2022/06/22 12:42:07;;;;;;;13.20;6.50;;;24.50;99.90;;;;;;10491926;28;20234;-80
2022/06/22 12:47:27;;;;;;;7.70;6.00;;;24.60;99.90;;;;;;10474061;28;20225;-80
2022/06/22 12:52:37;;;;;;;14.33;5.60;;;24.70;99.90;;;;;;10479275;28;20219;-80
2022/06/22 12:57:45;;;;;;;8.10;5.70;;;24.70;99.90;;;;;;10479200;28;20303;-80
2022/06/22 13:02:50;;;;;;;11.23;5.73;;;24.80;99.90;;;;;;10493275;28;20200;-80
2022/06/22 13:07:56;;;;;;;8.67;6.70;;;24.80;99.90;;;;;;10495603;28;20591;-80
2022/06/22 13:13:04;;;;;;;9.47;6.67;;;24.80;99.90;;;;;;10477782;28;20212;-80
2022/06/22 13:18:15;;;;;;;7.80;6.20;;;24.80;99.90;;;;;;10497212;28;20231;-80
2022/06/22 13:23:26;;;;;;;8.80;6.93;;;24.80;99.90;;;;;;10499894;28;20193;-81
2022/06/22 13:28:39;;;;;;;9.43;7.33;;;24.60;99.90;;;;;;10482652;28;20233;-80
2022/06/22 13:33:46;;;;;;;11.60;6.63;;;24.50;99.90;;;;;;10494852;28;20227;-80
2022/06/22 13:39:01;;;;;;;11.07;5.90;;;24.40;99.90;;;;;;10488347;28;20236;-80
2022/06/22 13:44:35;;;;;;;12.97;6.97;;;24.30;99.90;;;;;;10478970;28;20200;-80
2022/06/22 13:49:43;;;;;;;10.57;5.97;;;24.20;99.90;;;;;;10504634;28;20240;-80
2022/06/22 13:55:03;;;;;;;9.03;6.83;;;24.30;99.90;;;;;;10484084;28;20226;-80
2022/06/22 14:00:12;;;;;;;12.53;6.10;;;24.50;99.90;;;;;;10497789;28;20221;-80
2022/06/22 14:05:23;;;;;;;11.87;5.93;;;24.60;99.90;;;;;;10486681;28;20289;-81
2022/06/22 14:10:33;;;;;;;9.97;7.47;;;24.80;99.90;;;;;;10507149;28;20224;-80
2022/06/22 14:15:45;;;;;;;7.43;6.73;;;25.10;99.90;;;;;;10487447;28;20648;-80
2022/06/22 14:21:06;;;;;;;8.37;5.60;;;25.30;99.90;;;;;;10496494;28;20251;-80
2022/06/22 14:26:43;;;;;;;13.30;6.20;;;25.40;99.90;;;;;;10501526;28;20196;-81
2022/06/22 14:31:58;;;;;;;14.03;5.37;;;25.60;99.90;;;;;;10496268;28;20196;-80
2022/06/22 14:37:07;;;;;;;6.37;5.13;;;25.70;99.70;;;;;;10564257;22;20319;-82
2022/06/22 14:42:18;;;;;;;7.60;4.50;;;25.80;99.70;;;;;;10480312;28;20213;-83
2022/06/22 14:47:33;;;;;;;11.33;5.37;;;25.90;99.00;;;;;;10463032;28;20688;-83
2022/06/22 14:52:47;;;;;;;5.77;4.50;;;26.00;98.70;;;;;;10432444;28;20225;-83
2022/06/22 14:58:01;;;;;;;12.90;4.97;;;25.90;98.50;;;;;;10460630;28;20255;-83
2022/06/22 15:03:17;;;;;;;14.43;5.40;;;25.80;98.80;;;;;;10442524;28;20226;-83
2022/06/22 15:08:27;;;;;;;10.60;5.40;;;25.60;99.20;;;;;;10558554;22;20238;-83
2022/06/22 15:13:34;;;;;;;8.40;5.50;;;25.60;98.90;;;;;;10548257;28;20192;-84
2022/06/22 15:18:54;;;;;;;10.23;5.30;;;25.40;98.90;;;;;;10538498;28;20272;-82
2022/06/22 15:24:02;;;;;;;10.73;6.47;;;25.30;99.40;;;;;;10544077;28;20269;-83
2022/06/22 15:29:12;;;;;;;11.40;5.07;;;25.20;99.90;;;;;;10542621;28;20836;-83
2022/06/22 15:34:42;;;;;;;9.63;5.10;;;25.20;99.90;;;;;;10544185;28;20747;-82
2022/06/22 15:39:56;;;;;;;11.80;5.87;;;25.20;99.90;;;;;;10531837;28;20215;-82
2022/06/22 15:45:05;;;;;;;12.37;4.90;;;25.30;99.90;;;;;;10526126;28;20676;-82
2022/06/22 15:50:21;;;;;;;7.83;4.83;;;25.40;99.10;;;;;;10543018;28;20306;-83
2022/06/22 15:55:33;;;;;;;9.30;5.10;;;25.40;97.90;;;;;;10540897;28;20207;-83
2022/06/22 16:00:42;;;;;;;9.93;4.20;;;25.50;99.10;;;;;;10544220;28;20676;-83
2022/06/22 16:05:52;;;;;;;12.93;5.73;;;25.50;99.20;;;;;;10541242;28;20222;-83
2022/06/22 16:23:18;;;;;;;7.90;5.73;;;25.30;99.00;;;;;;10427826;28;20240;-80
2022/06/22 16:28:28;;;;;;;6.03;4.30;;;25.10;99.80;;;;;;10456650;28;20300;-80
2022/06/22 16:33:40;;;;;;;7.97;5.30;;;25.00;98.90;;;;;;10488200;28;20618;-80
2022/06/22 16:38:54;;;;;;;7.63;4.40;;;24.90;99.10;;;;;;10495157;28;20223;-80
2022/06/22 16:44:04;;;;;;;7.57;4.80;;;24.80;99.00;;;;;;10476166;28;20217;-80
2022/06/22 16:49:12;;;;;;;9.30;4.70;;;24.70;99.40;;;;;;10453254;28;20225;-80
2022/06/22 16:54:27;;;;;;;7.43;5.37;;;24.60;99.80;;;;;;10483608;28;20196;-79
2022/06/22 16:59:38;;;;;;;12.70;7.20;;;24.60;99.90;;;;;;10439111;28;20633;-80
2022/06/22 17:04:47;;;;;;;12.97;11.90;;;24.40;99.90;;;;;;10451714;28;20227;-79
2022/06/22 17:10:03;;;;;;;10.37;8.80;;;24.10;99.90;;;;;;10487675;28;20668;-79
2022/06/22 17:15:07;;;;;;;15.67;11.40;;;23.80;99.90;;;;;;10478759;28;20200;-79
2022/06/22 17:20:16;;;;;;;13.90;12.53;;;23.40;99.90;;;;;;10473312;28;20239;-78
2022/06/22 17:25:42;;;;;;;13.63;12.33;;;23.10;99.90;;;;;;10475317;28;20224;-80
2022/06/22 17:30:53;;;;;;;11.97;10.80;;;22.80;99.90;;;;;;10475715;28;20240;-80
2022/06/22 17:36:21;;;;;;;14.03;10.97;;;22.60;99.90;;;;;;10476830;28;20213;-79
2022/06/22 17:41:34;;;;;;;16.43;14.83;;;22.50;99.90;;;;;;10435593;28;20228;-79
2022/06/22 17:46:46;;;;;;;17.20;14.37;;;22.40;99.90;;;;;;10473004;28;21049;-79
2022/06/22 17:51:53;;;;;;;17.87;16.17;;;22.40;99.90;;;;;;10442717;28;20192;-79
2022/06/22 17:57:01;;;;;;;19.27;15.07;;;22.30;99.90;;;;;;10466991;28;20572;-79
2022/06/22 18:02:15;;;;;;;27.00;17.97;;;22.30;99.90;;;;;;10464195;28;20221;-79
2022/06/22 18:07:24;;;;;;;15.50;14.00;;;22.30;99.90;;;;;;10477761;28;20638;-79
2022/06/22 18:12:32;;;;;;;17.40;15.23;;;22.30;99.90;;;;;;10488621;28;20677;-79
2022/06/22 18:17:37;;;;;;;14.63;13.33;;;22.30;99.90;;;;;;10496544;28;20271;-78
2022/06/22 18:22:44;;;;;;;15.20;13.60;;;22.30;99.90;;;;;;10483677;28;20765;-80
2022/06/22 18:27:53;;;;;;;16.10;14.60;;;22.30;99.90;;;;;;10472705;22;20224;-80
2022/06/22 18:33:01;;;;;;;16.03;14.30;;;22.40;99.90;;;;;;10461671;28;20281;-82
2022/06/22 18:38:10;;;;;;;17.53;15.33;;;22.50;99.90;;;;;;10453146;28;20224;-83
2022/06/22 18:43:19;;;;;;;17.70;16.00;;;22.50;99.90;;;;;;10469473;28;20217;-82
2022/06/22 18:48:26;;;;;;;22.33;18.23;;;22.60;99.90;;;;;;10476411;28;20213;-83
2022/06/22 18:53:35;;;;;;;20.77;16.73;;;22.60;99.90;;;;;;10486516;28;20223;-80
2022/06/22 18:58:44;;;;;;;18.50;16.90;;;22.50;99.90;;;;;;10444366;28;20327;-80
2022/06/22 19:03:59;;;;;;;18.63;16.63;;;22.50;99.90;;;;;;10450935;28;20216;-82
2022/06/22 19:09:08;;;;;;;16.07;14.60;;;22.50;99.90;;;;;;10463786;28;20234;-82
2022/06/22 19:14:14;;;;;;;15.90;14.67;;;22.40;99.90;;;;;;10467211;28;20219;-83
2022/06/22 19:19:29;;;;;;;15.77;14.37;;;22.40;99.90;;;;;;10489319;28;20229;-83
2022/06/22 19:24:46;;;;;;;13.57;12.30;;;22.40;99.90;;;;;;10479515;28;20220;-83
2022/06/22 19:29:50;;;;;;;15.43;14.10;;;22.30;99.90;;;;;;10471141;28;20231;-83
2022/06/22 19:35:10;;;;;;;14.00;13.00;;;22.30;99.90;;;;;;10446828;28;20201;-84
2022/06/22 19:40:21;;;;;;;12.53;11.43;;;22.20;99.90;;;;;;10448348;28;20303;-83
2022/06/22 19:45:41;;;;;;;13.20;11.20;;;22.10;99.90;;;;;;10445221;28;20956;-82
2022/06/22 19:50:54;;;;;;;11.93;10.73;;;22.00;99.90;;;;;;10437703;28;20268;-82
2022/06/22 19:56:07;;;;;;;16.03;14.17;;;21.90;99.90;;;;;;10471001;28;20196;-82
2022/06/22 20:01:13;;;;;;;12.80;11.50;;;21.90;99.90;;;;;;10478622;28;20658;-82
2022/06/22 20:06:24;;;;;;;19.60;11.77;;;21.90;99.90;;;;;;10456107;28;20685;-83
2022/06/22 20:11:35;;;;;;;13.43;12.40;;;21.80;99.90;;;;;;10456415;28;20227;-82
2022/06/22 20:16:49;;;;;;;12.70;11.50;;;21.80;99.90;;;;;;10454510;28;20292;-83
2022/06/22 20:22:00;;;;;;;14.83;13.43;;;21.70;99.90;;;;;;10458574;28;20224;-83
2022/06/22 20:27:05;;;;;;;13.17;10.90;;;21.60;99.90;;;;;;10448628;28;20238;-83
2022/06/22 20:32:18;;;;;;;13.50;12.03;;;21.50;99.90;;;;;;10470375;28;20205;-83
2022/06/22 20:37:24;;;;;;;12.57;11.10;;;21.50;99.90;;;;;;10464659;28;20221;-82
2022/06/22 20:42:33;;;;;;;11.50;10.50;;;21.30;99.90;;;;;;10508278;28;20244;-83
2022/06/22 20:47:49;;;;;;;11.37;10.40;;;21.30;99.90;;;;;;10519390;28;20224;-82
2022/06/22 20:52:57;;;;;;;13.10;11.93;;;21.30;99.90;;;;;;10462087;28;20721;-83
2022/06/22 20:58:05;;;;;;;16.23;12.10;;;21.20;99.90;;;;;;10487646;28;20224;-83
2022/06/22 21:03:10;;;;;;;12.90;10.77;;;21.10;99.90;;;;;;10481192;28;20209;-83
2022/06/22 21:08:24;;;;;;;13.10;11.03;;;21.10;99.90;;;;;;10477678;28;20234;-82
2022/06/22 21:13:46;;;;;;;13.70;10.90;;;21.10;99.90;;;;;;10504341;28;20196;-83
2022/06/22 21:18:52;;;;;;;11.50;10.47;;;21.00;99.90;;;;;;10505962;28;20213;-82
2022/06/22 21:23:58;;;;;;;11.13;10.03;;;21.00;99.90;;;;;;10491546;28;20217;-84
2022/06/22 21:29:31;;;;;;;11.23;10.30;;;21.10;99.90;;;;;;10475058;28;20229;-82
2022/06/22 21:34:44;;;;;;;13.50;10.03;;;21.10;99.90;;;;;;10487633;28;20197;-82
2022/06/22 21:40:07;;;;;;;12.57;10.10;;;21.10;99.90;;;;;;10480906;28;20244;-82
2022/06/22 21:45:21;;;;;;;11.53;10.43;;;21.20;99.90;;;;;;10497244;28;20232;-83
2022/06/22 21:51:08;;;;;;;11.93;10.07;;;21.20;99.90;;;;;;10498271;28;20228;-83
2022/06/22 21:56:42;;;;;;;11.27;10.10;;;21.20;99.90;;;;;;10482326;28;20200;-82
2022/06/22 22:01:52;;;;;;;11.73;8.83;;;21.30;99.90;;;;;;10487406;28;20283;-83
2022/06/22 22:06:59;;;;;;;11.17;9.97;;;21.30;99.90;;;;;;10489971;28;20228;-82
2022/06/22 22:12:05;;;;;;;10.00;9.13;;;21.30;99.90;;;;;;10479424;28;20224;-82
2022/06/22 22:17:10;;;;;;;10.80;9.70;;;21.30;99.90;;;;;;10492101;28;20229;-82
2022/06/22 22:22:20;;;;;;;11.20;9.37;;;21.40;99.90;;;;;;10470984;28;20202;-82
2022/06/22 22:27:27;;;;;;;10.33;9.30;;;21.40;99.90;;;;;;10473107;28;20239;-82
2022/06/22 22:32:32;;;;;;;10.80;9.63;;;21.40;99.90;;;;;;10466694;28;20565;-82
2022/06/22 22:37:38;;;;;;;12.43;10.90;;;21.40;99.90;;;;;;10451984;28;20229;-82
2022/06/22 22:42:52;;;;;;;10.37;8.80;;;21.50;99.90;;;;;;10445763;28;20715;-84
2022/06/22 22:47:56;;;;;;;12.80;8.90;;;21.50;99.90;;;;;;10463898;28;20704;-82
2022/06/22 22:53:04;;;;;;;12.43;9.50;;;21.50;99.90;;;;;;10478306;28;20193;-84
2022/06/22 22:58:17;;;;;;;10.43;9.40;;;21.50;99.90;;;;;;10462593;28;20216;-83
2022/06/22 23:03:25;;;;;;;6.67;5.50;;;21.50;99.90;;;;;;10453033;28;20204;-82
2022/06/22 23:08:33;;;;;;;10.47;9.43;;;21.60;99.90;;;;;;10451772;28;20256;-82
2022/06/22 23:13:41;;;;;;;12.90;8.90;;;21.60;99.90;;;;;;10441826;28;20221;-83
2022/06/22 23:18:46;;;;;;;10.00;9.10;;;21.70;99.90;;;;;;10428884;28;20303;-83
2022/06/22 23:23:50;;;;;;;11.70;8.10;;;21.70;99.90;;;;;;10472010;28;20257;-82
2022/06/22 23:28:55;;;;;;;14.13;8.90;;;21.70;99.90;;;;;;10446648;28;20217;-82
2022/06/22 23:34:02;;;;;;;9.80;8.00;;;21.70;99.90;;;;;;10469300;28;20576;-82
2022/06/22 23:39:13;;;;;;;10.50;7.50;;;21.70;99.90;;;;;;10446895;28;20225;-82
2022/06/22 23:44:19;;;;;;;9.80;7.87;;;21.70;99.90;;;;;;10428614;28;20240;-82
2022/06/22 23:49:45;;;;;;;12.07;6.73;;;21.70;99.90;;;;;;10467877;28;20232;-83
2022/06/22 23:54:53;;;;;;;9.87;6.47;;;21.60;99.90;;;;;;10479683;28;20280;-82
